sensor_id;sensor_type;location;lat;lon;timestamp;temperature;humidity
15013;DHT22;7603;49.432;11.418;2022-07-09T00:01:54;13.70;99.90
15013;DHT22;7603;49.432;11.418;2022-07-09T00:04:20;13.70;99.90
15013;DHT22;7603;49.432;11.418;2022-07-09T00:06:45;13.60;99.90
15013;DHT22;7603;49.432;11.418;2022-07-09T00:09:11;13.60;99.90
15013;DHT22;7603;49.432;11.418;2022-07-09T00:11:38;13.50;99.90
15013;DHT22;7603;49.432;11.418;2022-07-09T00:14:04;13.40;99.90
15013;DHT22;7603;49.432;11.418;2022-07-09T00:16:30;13.30;99.90
15013;DHT22;7603;49.432;11.418;2022-07-09T00:18:55;13.30;99.90
15013;DHT22;7603;49.432;11.418;2022-07-09T00:21:21;13.30;99.90
15013;DHT22;7603;49.432;11.418;2022-07-09T00:23:48;13.30;99.90
15013;DHT22;7603;49.432;11.418;2022-07-09T00:26:13;13.30;99.90
15013;DHT22;7603;49.432;11.418;2022-07-09T00:28:39;13.30;99.90
15013;DHT22;7603;49.432;11.418;2022-07-09T00:31:05;13.30;99.90
15013;DHT22;7603;49.432;11.418;2022-07-09T00:33:31;13.40;99.90
15013;DHT22;7603;49.432;11.418;2022-07-09T00:35:56;13.50;99.90
15013;DHT22;7603;49.432;11.418;2022-07-09T00:38:22;13.50;99.90
15013;DHT22;7603;49.432;11.418;2022-07-09T00:40:47;13.60;99.90
15013;DHT22;7603;49.432;11.418;2022-07-09T00:43:18;13.80;99.90
15013;DHT22;7603;49.432;11.418;2022-07-09T00:45:44;14.00;99.90
15013;DHT22;7603;49.432;11.418;2022-07-09T00:48:10;14.20;99.90
15013;DHT22;7603;49.432;11.418;2022-07-09T00:50:37;14.30;99.90
15013;DHT22;7603;49.432;11.418;2022-07-09T00:53:03;14.40;99.90
15013;DHT22;7603;49.432;11.418;2022-07-09T00:55:29;14.40;99.90
15013;DHT22;7603;49.432;11.418;2022-07-09T00:57:55;14.40;99.90
15013;DHT22;7603;49.432;11.418;2022-07-09T01:00:21;14.50;99.90
15013;DHT22;7603;49.432;11.418;2022-07-09T01:02:49;14.50;99.90
15013;DHT22;7603;49.432;11.418;2022-07-09T01:05:15;14.50;99.90
15013;DHT22;7603;49.432;11.418;2022-07-09T01:07:41;14.50;99.90
15013;DHT22;7603;49.432;11.418;2022-07-09T01:10:07;14.50;99.90
15013;DHT22;7603;49.432;11.418;2022-07-09T01:12:32;14.60;99.90
15013;DHT22;7603;49.432;11.418;2022-07-09T01:14:58;14.60;99.90
15013;DHT22;7603;49.432;11.418;2022-07-09T01:17:24;14.70;99.90
15013;DHT22;7603;49.432;11.418;2022-07-09T01:19:50;14.70;99.90
15013;DHT22;7603;49.432;11.418;2022-07-09T01:22:15;14.60;99.90
15013;DHT22;7603;49.432;11.418;2022-07-09T01:24:41;14.50;99.90
15013;DHT22;7603;49.432;11.418;2022-07-09T01:27:07;14.40;99.90
15013;DHT22;7603;49.432;11.418;2022-07-09T01:29:33;14.50;99.90
15013;DHT22;7603;49.432;11.418;2022-07-09T01:31:59;14.50;99.90
15013;DHT22;7603;49.432;11.418;2022-07-09T01:34:25;14.60;99.90
15013;DHT22;7603;49.432;11.418;2022-07-09T01:36:50;14.70;99.90
15013;DHT22;7603;49.432;11.418;2022-07-09T01:39:16;14.70;99.90
15013;DHT22;7603;49.432;11.418;2022-07-09T01:41:42;14.60;99.90
15013;DHT22;7603;49.432;11.418;2022-07-09T01:44:08;14.70;99.90
15013;DHT22;7603;49.432;11.418;2022-07-09T01:46:34;14.60;99.90
15013;DHT22;7603;49.432;11.418;2022-07-09T01:49:00;14.70;99.90
15013;DHT22;7603;49.432;11.418;2022-07-09T01:51:26;14.60;99.90
15013;DHT22;7603;49.432;11.418;2022-07-09T01:53:52;14.40;99.90
15013;DHT22;7603;49.432;11.418;2022-07-09T01:56:17;13.90;99.90
15013;DHT22;7603;49.432;11.418;2022-07-09T01:58:43;13.60;99.90
15013;DHT22;7603;49.432;11.418;2022-07-09T02:01:09;13.20;99.90
15013;DHT22;7603;49.432;11.418;2022-07-09T02:03:35;12.90;99.90
15013;DHT22;7603;49.432;11.418;2022-07-09T02:06:01;12.60;99.90
15013;DHT22;7603;49.432;11.418;2022-07-09T02:08:27;12.30;99.90
15013;DHT22;7603;49.432;11.418;2022-07-09T02:10:53;12.10;99.90
15013;DHT22;7603;49.432;11.418;2022-07-09T02:13:20;11.90;99.90
15013;DHT22;7603;49.432;11.418;2022-07-09T02:15:45;11.70;99.90
15013;DHT22;7603;49.432;11.418;2022-07-09T02:18:11;11.50;99.90
15013;DHT22;7603;49.432;11.418;2022-07-09T02:20:38;11.40;99.90
15013;DHT22;7603;49.432;11.418;2022-07-09T02:23:03;11.20;99.90
15013;DHT22;7603;49.432;11.418;2022-07-09T02:25:29;11.10;99.90
15013;DHT22;7603;49.432;11.418;2022-07-09T02:27:55;11.00;99.90
15013;DHT22;7603;49.432;11.418;2022-07-09T02:30:21;11.00;99.90
15013;DHT22;7603;49.432;11.418;2022-07-09T02:32:46;10.90;99.90
15013;DHT22;7603;49.432;11.418;2022-07-09T02:35:12;10.80;99.90
15013;DHT22;7603;49.432;11.418;2022-07-09T02:37:38;10.70;99.90
15013;DHT22;7603;49.432;11.418;2022-07-09T02:40:05;10.70;99.90
15013;DHT22;7603;49.432;11.418;2022-07-09T02:42:30;10.60;99.90
15013;DHT22;7603;49.432;11.418;2022-07-09T02:44:56;10.60;99.90
15013;DHT22;7603;49.432;11.418;2022-07-09T02:47:22;10.50;99.90
15013;DHT22;7603;49.432;11.418;2022-07-09T02:49:47;10.50;99.90
15013;DHT22;7603;49.432;11.418;2022-07-09T02:52:13;10.50;99.90
15013;DHT22;7603;49.432;11.418;2022-07-09T02:54:39;10.40;99.90
15013;DHT22;7603;49.432;11.418;2022-07-09T02:57:05;10.40;99.90
15013;DHT22;7603;49.432;11.418;2022-07-09T02:59:30;10.40;99.90
15013;DHT22;7603;49.432;11.418;2022-07-09T03:01:56;10.40;99.90
15013;DHT22;7603;49.432;11.418;2022-07-09T03:04:22;10.50;99.90
15013;DHT22;7603;49.432;11.418;2022-07-09T03:06:47;10.50;99.90
15013;DHT22;7603;49.432;11.418;2022-07-09T03:09:14;10.60;99.90
15013;DHT22;7603;49.432;11.418;2022-07-09T03:11:39;10.60;99.90
15013;DHT22;7603;49.432;11.418;2022-07-09T03:14:05;10.60;99.90
15013;DHT22;7603;49.432;11.418;2022-07-09T03:16:30;10.70;99.90
15013;DHT22;7603;49.432;11.418;2022-07-09T03:18:56;10.80;99.90
15013;DHT22;7603;49.432;11.418;2022-07-09T03:21:22;10.80;99.90
15013;DHT22;7603;49.432;11.418;2022-07-09T03:23:47;10.90;99.90
15013;DHT22;7603;49.432;11.418;2022-07-09T03:26:13;11.00;99.90
15013;DHT22;7603;49.432;11.418;2022-07-09T03:28:39;11.10;99.90
15013;DHT22;7603;49.432;11.418;2022-07-09T03:31:04;11.20;99.90
15013;DHT22;7603;49.432;11.418;2022-07-09T03:33:30;11.30;99.90
15013;DHT22;7603;49.432;11.418;2022-07-09T03:35:56;11.40;99.90
15013;DHT22;7603;49.432;11.418;2022-07-09T03:38:22;11.50;99.90
15013;DHT22;7603;49.432;11.418;2022-07-09T03:40:49;11.50;99.90
15013;DHT22;7603;49.432;11.418;2022-07-09T03:43:14;11.60;99.90
15013;DHT22;7603;49.432;11.418;2022-07-09T03:45:40;11.70;99.90
15013;DHT22;7603;49.432;11.418;2022-07-09T03:48:06;11.80;99.90
15013;DHT22;7603;49.432;11.418;2022-07-09T03:50:32;11.90;99.90
15013;DHT22;7603;49.432;11.418;2022-07-09T03:52:58;11.90;99.90
15013;DHT22;7603;49.432;11.418;2022-07-09T03:55:24;12.10;99.90
15013;DHT22;7603;49.432;11.418;2022-07-09T03:57:49;12.10;99.90
15013;DHT22;7603;49.432;11.418;2022-07-09T04:00:15;12.30;99.90
15013;DHT22;7603;49.432;11.418;2022-07-09T04:02:41;12.40;99.90
15013;DHT22;7603;49.432;11.418;2022-07-09T04:05:07;12.50;99.90
15013;DHT22;7603;49.432;11.418;2022-07-09T04:07:34;12.60;99.90
15013;DHT22;7603;49.432;11.418;2022-07-09T04:10:00;12.60;99.90
15013;DHT22;7603;49.432;11.418;2022-07-09T04:12:26;12.70;99.90
15013;DHT22;7603;49.432;11.418;2022-07-09T04:14:52;12.80;99.90
15013;DHT22;7603;49.432;11.418;2022-07-09T04:17:17;12.80;99.90
15013;DHT22;7603;49.432;11.418;2022-07-09T04:19:43;12.90;99.90
15013;DHT22;7603;49.432;11.418;2022-07-09T04:22:09;13.00;99.90
15013;DHT22;7603;49.432;11.418;2022-07-09T04:24:34;13.00;99.90
15013;DHT22;7603;49.432;11.418;2022-07-09T04:27:00;13.10;99.90
15013;DHT22;7603;49.432;11.418;2022-07-09T04:29:26;13.20;99.90
15013;DHT22;7603;49.432;11.418;2022-07-09T04:31:52;13.40;99.90
15013;DHT22;7603;49.432;11.418;2022-07-09T04:34:17;13.50;99.90
15013;DHT22;7603;49.432;11.418;2022-07-09T04:36:43;13.60;99.90
15013;DHT22;7603;49.432;11.418;2022-07-09T04:39:09;13.70;99.90
15013;DHT22;7603;49.432;11.418;2022-07-09T04:41:36;13.90;99.90
15013;DHT22;7603;49.432;11.418;2022-07-09T04:44:02;14.00;99.90
15013;DHT22;7603;49.432;11.418;2022-07-09T04:46:28;14.10;99.90
15013;DHT22;7603;49.432;11.418;2022-07-09T04:48:56;14.20;99.90
15013;DHT22;7603;49.432;11.418;2022-07-09T04:51:21;14.40;99.90
15013;DHT22;7603;49.432;11.418;2022-07-09T04:53:47;14.50;99.90
15013;DHT22;7603;49.432;11.418;2022-07-09T04:56:13;14.50;99.90
15013;DHT22;7603;49.432;11.418;2022-07-09T04:58:39;14.70;99.90
15013;DHT22;7603;49.432;11.418;2022-07-09T05:01:20;14.80;99.90
15013;DHT22;7603;49.432;11.418;2022-07-09T05:03:46;14.90;99.90
15013;DHT22;7603;49.432;11.418;2022-07-09T05:06:21;15.10;99.90
15013;DHT22;7603;49.432;11.418;2022-07-09T05:08:46;15.20;99.90
15013;DHT22;7603;49.432;11.418;2022-07-09T05:11:15;15.30;99.90
15013;DHT22;7603;49.432;11.418;2022-07-09T05:13:41;15.40;99.90
15013;DHT22;7603;49.432;11.418;2022-07-09T05:16:07;15.50;99.90
15013;DHT22;7603;49.432;11.418;2022-07-09T05:18:33;15.60;99.90
15013;DHT22;7603;49.432;11.418;2022-07-09T05:20:59;15.70;99.90
15013;DHT22;7603;49.432;11.418;2022-07-09T05:23:24;15.80;99.90
15013;DHT22;7603;49.432;11.418;2022-07-09T05:25:50;16.00;99.90
15013;DHT22;7603;49.432;11.418;2022-07-09T05:28:16;16.10;99.90
15013;DHT22;7603;49.432;11.418;2022-07-09T05:30:42;16.20;99.90
15013;DHT22;7603;49.432;11.418;2022-07-09T05:33:08;16.20;99.90
15013;DHT22;7603;49.432;11.418;2022-07-09T05:35:34;16.30;99.90
15013;DHT22;7603;49.432;11.418;2022-07-09T05:38:00;16.40;99.90
15013;DHT22;7603;49.432;11.418;2022-07-09T05:40:25;16.50;99.90
15013;DHT22;7603;49.432;11.418;2022-07-09T05:42:51;16.60;99.90
15013;DHT22;7603;49.432;11.418;2022-07-09T05:45:17;16.70;99.90
15013;DHT22;7603;49.432;11.418;2022-07-09T05:47:44;16.80;99.90
15013;DHT22;7603;49.432;11.418;2022-07-09T05:50:09;16.90;99.90
15013;DHT22;7603;49.432;11.418;2022-07-09T05:52:35;17.00;99.90
15013;DHT22;7603;49.432;11.418;2022-07-09T05:55:01;17.10;99.90
15013;DHT22;7603;49.432;11.418;2022-07-09T05:57:28;17.10;99.90
15013;DHT22;7603;49.432;11.418;2022-07-09T05:59:54;17.30;99.90
15013;DHT22;7603;49.432;11.418;2022-07-09T06:02:21;17.30;99.90
15013;DHT22;7603;49.432;11.418;2022-07-09T06:04:47;17.50;99.90
15013;DHT22;7603;49.432;11.418;2022-07-09T06:07:13;17.70;99.90
15013;DHT22;7603;49.432;11.418;2022-07-09T06:09:39;17.90;99.90
15013;DHT22;7603;49.432;11.418;2022-07-09T06:12:04;18.00;99.90
15013;DHT22;7603;49.432;11.418;2022-07-09T06:14:30;18.20;99.90
15013;DHT22;7603;49.432;11.418;2022-07-09T06:16:56;18.30;99.90
15013;DHT22;7603;49.432;11.418;2022-07-09T06:19:22;18.50;99.90
15013;DHT22;7603;49.432;11.418;2022-07-09T06:21:48;18.60;99.90
15013;DHT22;7603;49.432;11.418;2022-07-09T06:24:13;18.80;99.90
15013;DHT22;7603;49.432;11.418;2022-07-09T06:26:39;18.80;99.90
15013;DHT22;7603;49.432;11.418;2022-07-09T06:29:05;18.80;99.90
15013;DHT22;7603;49.432;11.418;2022-07-09T06:31:30;18.90;99.90
15013;DHT22;7603;49.432;11.418;2022-07-09T06:33:56;19.00;99.90
15013;DHT22;7603;49.432;11.418;2022-07-09T06:36:23;19.10;99.90
15013;DHT22;7603;49.432;11.418;2022-07-09T06:38:49;19.20;99.90
15013;DHT22;7603;49.432;11.418;2022-07-09T06:41:34;19.40;99.90
15013;DHT22;7603;49.432;11.418;2022-07-09T06:43:59;19.50;99.90
15013;DHT22;7603;49.432;11.418;2022-07-09T06:46:25;19.50;99.90
15013;DHT22;7603;49.432;11.418;2022-07-09T06:48:51;19.50;99.90
15013;DHT22;7603;49.432;11.418;2022-07-09T06:51:17;19.60;99.90
15013;DHT22;7603;49.432;11.418;2022-07-09T06:53:43;19.60;99.90
15013;DHT22;7603;49.432;11.418;2022-07-09T06:56:08;19.70;99.90
15013;DHT22;7603;49.432;11.418;2022-07-09T06:58:34;19.80;99.90
15013;DHT22;7603;49.432;11.418;2022-07-09T07:00:59;20.00;99.90
15013;DHT22;7603;49.432;11.418;2022-07-09T07:03:25;20.20;99.90
15013;DHT22;7603;49.432;11.418;2022-07-09T07:05:51;20.30;99.90
15013;DHT22;7603;49.432;11.418;2022-07-09T07:08:16;20.40;99.90
15013;DHT22;7603;49.432;11.418;2022-07-09T07:10:43;20.40;99.90
15013;DHT22;7603;49.432;11.418;2022-07-09T07:13:09;20.40;99.90
15013;DHT22;7603;49.432;11.418;2022-07-09T07:15:36;20.50;99.90
15013;DHT22;7603;49.432;11.418;2022-07-09T07:18:02;20.60;99.90
15013;DHT22;7603;49.432;11.418;2022-07-09T07:20:27;20.80;99.90
15013;DHT22;7603;49.432;11.418;2022-07-09T07:22:53;21.00;99.90
15013;DHT22;7603;49.432;11.418;2022-07-09T07:25:19;21.30;99.90
15013;DHT22;7603;49.432;11.418;2022-07-09T07:27:44;21.40;99.90
15013;DHT22;7603;49.432;11.418;2022-07-09T07:30:10;21.50;99.90
15013;DHT22;7603;49.432;11.418;2022-07-09T07:32:36;21.70;99.90
15013;DHT22;7603;49.432;11.418;2022-07-09T07:35:02;22.00;99.90
15013;DHT22;7603;49.432;11.418;2022-07-09T07:37:28;22.20;99.90
15013;DHT22;7603;49.432;11.418;2022-07-09T07:39:54;22.40;99.90
15013;DHT22;7603;49.432;11.418;2022-07-09T07:42:20;22.70;99.90
15013;DHT22;7603;49.432;11.418;2022-07-09T07:44:46;22.80;99.90
15013;DHT22;7603;49.432;11.418;2022-07-09T07:47:11;23.00;99.90
15013;DHT22;7603;49.432;11.418;2022-07-09T07:49:37;23.10;99.90
15013;DHT22;7603;49.432;11.418;2022-07-09T07:52:03;23.40;99.90
15013;DHT22;7603;49.432;11.418;2022-07-09T07:54:28;23.50;99.90
15013;DHT22;7603;49.432;11.418;2022-07-09T07:56:54;23.60;99.90
15013;DHT22;7603;49.432;11.418;2022-07-09T07:59:20;23.60;99.90
15013;DHT22;7603;49.432;11.418;2022-07-09T08:01:46;23.30;99.90
15013;DHT22;7603;49.432;11.418;2022-07-09T08:04:11;23.30;99.90
15013;DHT22;7603;49.432;11.418;2022-07-09T08:06:37;23.40;99.90
15013;DHT22;7603;49.432;11.418;2022-07-09T08:09:03;23.50;99.90
15013;DHT22;7603;49.432;11.418;2022-07-09T08:11:29;23.60;99.90
15013;DHT22;7603;49.432;11.418;2022-07-09T08:13:55;23.80;99.90
15013;DHT22;7603;49.432;11.418;2022-07-09T08:16:22;23.70;99.90
15013;DHT22;7603;49.432;11.418;2022-07-09T08:18:48;23.60;99.90
15013;DHT22;7603;49.432;11.418;2022-07-09T08:21:14;23.50;99.90
15013;DHT22;7603;49.432;11.418;2022-07-09T08:23:40;23.30;99.90
15013;DHT22;7603;49.432;11.418;2022-07-09T08:26:24;23.30;99.90
15013;DHT22;7603;49.432;11.418;2022-07-09T08:28:51;23.30;99.90
15013;DHT22;7603;49.432;11.418;2022-07-09T08:31:20;23.30;99.90
15013;DHT22;7603;49.432;11.418;2022-07-09T08:33:46;23.40;99.90
15013;DHT22;7603;49.432;11.418;2022-07-09T08:36:12;23.40;99.90
15013;DHT22;7603;49.432;11.418;2022-07-09T08:38:38;23.40;99.90
15013;DHT22;7603;49.432;11.418;2022-07-09T08:41:05;23.50;99.90
15013;DHT22;7603;49.432;11.418;2022-07-09T08:43:35;23.70;99.90
15013;DHT22;7603;49.432;11.418;2022-07-09T08:46:01;23.90;99.90
15013;DHT22;7603;49.432;11.418;2022-07-09T08:48:27;24.00;99.90
15013;DHT22;7603;49.432;11.418;2022-07-09T08:50:53;24.10;99.90
15013;DHT22;7603;49.432;11.418;2022-07-09T08:53:19;24.30;99.90
15013;DHT22;7603;49.432;11.418;2022-07-09T08:55:46;24.50;99.90
15013;DHT22;7603;49.432;11.418;2022-07-09T08:58:13;24.80;99.90
15013;DHT22;7603;49.432;11.418;2022-07-09T09:00:39;25.20;99.80
15013;DHT22;7603;49.432;11.418;2022-07-09T09:03:06;25.60;98.20
15013;DHT22;7603;49.432;11.418;2022-07-09T09:05:32;26.00;96.80
15013;DHT22;7603;49.432;11.418;2022-07-09T09:07:59;26.50;95.50
15013;DHT22;7603;49.432;11.418;2022-07-09T09:10:28;26.80;93.10
15013;DHT22;7603;49.432;11.418;2022-07-09T09:12:57;27.00;91.30
15013;DHT22;7603;49.432;11.418;2022-07-09T09:15:24;27.20;90.70
15013;DHT22;7603;49.432;11.418;2022-07-09T09:17:51;27.30;88.70
15013;DHT22;7603;49.432;11.418;2022-07-09T09:20:17;27.50;87.70
15013;DHT22;7603;49.432;11.418;2022-07-09T09:22:51;27.40;85.70
15013;DHT22;7603;49.432;11.418;2022-07-09T09:25:20;27.30;86.40
15013;DHT22;7603;49.432;11.418;2022-07-09T09:27:56;27.10;88.10
15013;DHT22;7603;49.432;11.418;2022-07-09T09:30:23;27.10;86.90
15013;DHT22;7603;49.432;11.418;2022-07-09T09:32:59;27.40;86.20
15013;DHT22;7603;49.432;11.418;2022-07-09T09:35:35;27.50;83.80
15013;DHT22;7603;49.432;11.418;2022-07-09T09:38:01;27.20;81.10
15013;DHT22;7603;49.432;11.418;2022-07-09T09:40:26;27.10;81.20
15013;DHT22;7603;49.432;11.418;2022-07-09T09:42:52;27.40;80.00
15013;DHT22;7603;49.432;11.418;2022-07-09T09:45:18;27.80;74.50
15013;DHT22;7603;49.432;11.418;2022-07-09T09:47:49;27.90;75.10
15013;DHT22;7603;49.432;11.418;2022-07-09T09:50:18;27.90;74.80
15013;DHT22;7603;49.432;11.418;2022-07-09T09:52:46;27.80;75.60
15013;DHT22;7603;49.432;11.418;2022-07-09T09:55:14;27.60;76.30
15013;DHT22;7603;49.432;11.418;2022-07-09T09:57:40;27.20;77.40
15013;DHT22;7603;49.432;11.418;2022-07-09T10:00:07;26.50;79.30
15013;DHT22;7603;49.432;11.418;2022-07-09T10:02:33;26.00;82.50
15013;DHT22;7603;49.432;11.418;2022-07-09T10:05:01;25.60;84.80
15013;DHT22;7603;49.432;11.418;2022-07-09T10:07:27;25.40;87.00
15013;DHT22;7603;49.432;11.418;2022-07-09T10:09:57;25.10;88.20
15013;DHT22;7603;49.432;11.418;2022-07-09T10:12:34;24.90;90.00
15013;DHT22;7603;49.432;11.418;2022-07-09T10:15:01;24.70;90.70
15013;DHT22;7603;49.432;11.418;2022-07-09T10:17:27;24.40;91.70
15013;DHT22;7603;49.432;11.418;2022-07-09T10:20:04;24.20;91.90
15013;DHT22;7603;49.432;11.418;2022-07-09T10:22:41;24.00;92.60
15013;DHT22;7603;49.432;11.418;2022-07-09T10:25:11;23.90;92.90
15013;DHT22;7603;49.432;11.418;2022-07-09T10:27:46;23.90;93.70
15013;DHT22;7603;49.432;11.418;2022-07-09T10:30:29;23.90;93.80
15013;DHT22;7603;49.432;11.418;2022-07-09T10:33:12;24.20;93.80
15013;DHT22;7603;49.432;11.418;2022-07-09T10:35:46;24.60;93.60
15013;DHT22;7603;49.432;11.418;2022-07-09T10:38:13;25.10;92.80
15013;DHT22;7603;49.432;11.418;2022-07-09T10:40:40;25.70;91.60
15013;DHT22;7603;49.432;11.418;2022-07-09T10:43:05;26.00;90.20
15013;DHT22;7603;49.432;11.418;2022-07-09T10:48:01;26.30;85.60
15013;DHT22;7603;49.432;11.418;2022-07-09T10:50:28;26.10;86.80
15013;DHT22;7603;49.432;11.418;2022-07-09T10:52:55;26.20;87.60
15013;DHT22;7603;49.432;11.418;2022-07-09T10:55:22;26.60;84.70
15013;DHT22;7603;49.432;11.418;2022-07-09T10:57:48;27.10;82.00
15013;DHT22;7603;49.432;11.418;2022-07-09T11:00:18;27.50;80.60
15013;DHT22;7603;49.432;11.418;2022-07-09T11:05:32;27.90;75.30
15013;DHT22;7603;49.432;11.418;2022-07-09T11:08:00;27.90;74.00
15013;DHT22;7603;49.432;11.418;2022-07-09T11:10:28;27.90;72.80
15013;DHT22;7603;49.432;11.418;2022-07-09T11:12:58;27.60;71.90
15013;DHT22;7603;49.432;11.418;2022-07-09T11:15:26;27.10;73.80
15013;DHT22;7603;49.432;11.418;2022-07-09T11:18:09;26.70;74.20
15013;DHT22;7603;49.432;11.418;2022-07-09T11:20:47;26.40;76.10
15013;DHT22;7603;49.432;11.418;2022-07-09T11:23:16;26.00;78.00
15013;DHT22;7603;49.432;11.418;2022-07-09T11:25:43;25.60;79.50
15013;DHT22;7603;49.432;11.418;2022-07-09T11:28:22;25.30;80.90
15013;DHT22;7603;49.432;11.418;2022-07-09T11:31:04;24.90;82.60
15013;DHT22;7603;49.432;11.418;2022-07-09T11:33:30;24.70;84.70
15013;DHT22;7603;49.432;11.418;2022-07-09T11:36:20;24.40;86.70
15013;DHT22;7603;49.432;11.418;2022-07-09T11:38:51;24.20;88.90
15013;DHT22;7603;49.432;11.418;2022-07-09T11:41:17;24.20;90.20
15013;DHT22;7603;49.432;11.418;2022-07-09T11:43:49;24.10;90.50
15013;DHT22;7603;49.432;11.418;2022-07-09T11:46:19;24.00;91.00
15013;DHT22;7603;49.432;11.418;2022-07-09T11:48:55;24.00;91.40
15013;DHT22;7603;49.432;11.418;2022-07-09T11:53:54;23.80;92.60
15013;DHT22;7603;49.432;11.418;2022-07-09T11:56:19;23.60;93.10
15013;DHT22;7603;49.432;11.418;2022-07-09T11:58:52;23.50;93.60
15013;DHT22;7603;49.432;11.418;2022-07-09T12:01:18;23.30;94.00
15013;DHT22;7603;49.432;11.418;2022-07-09T12:03:49;23.20;94.30
15013;DHT22;7603;49.432;11.418;2022-07-09T12:06:15;23.20;94.40
15013;DHT22;7603;49.432;11.418;2022-07-09T12:08:41;23.30;94.50
15013;DHT22;7603;49.432;11.418;2022-07-09T12:11:07;23.40;94.60
15013;DHT22;7603;49.432;11.418;2022-07-09T12:13:33;23.50;94.40
15013;DHT22;7603;49.432;11.418;2022-07-09T12:15:58;23.70;94.20
15013;DHT22;7603;49.432;11.418;2022-07-09T12:18:24;23.90;93.80
15013;DHT22;7603;49.432;11.418;2022-07-09T12:20:50;24.00;93.50
15013;DHT22;7603;49.432;11.418;2022-07-09T12:23:16;24.10;92.40
15013;DHT22;7603;49.432;11.418;2022-07-09T12:25:42;24.10;92.20
15013;DHT22;7603;49.432;11.418;2022-07-09T12:28:07;24.20;92.60
15013;DHT22;7603;49.432;11.418;2022-07-09T12:30:33;24.50;92.10
15013;DHT22;7603;49.432;11.418;2022-07-09T12:32:59;24.70;90.80
15013;DHT22;7603;49.432;11.418;2022-07-09T12:35:25;25.10;90.70
15013;DHT22;7603;49.432;11.418;2022-07-09T12:37:51;25.60;89.80
15013;DHT22;7603;49.432;11.418;2022-07-09T12:40:17;26.30;86.20
15013;DHT22;7603;49.432;11.418;2022-07-09T12:42:44;26.90;83.10
15013;DHT22;7603;49.432;11.418;2022-07-09T12:45:10;27.00;79.10
15013;DHT22;7603;49.432;11.418;2022-07-09T12:47:35;27.00;79.20
15013;DHT22;7603;49.432;11.418;2022-07-09T12:50:02;27.00;78.70
15013;DHT22;7603;49.432;11.418;2022-07-09T12:52:32;27.40;77.60
15013;DHT22;7603;49.432;11.418;2022-07-09T12:54:59;28.00;76.70
15013;DHT22;7603;49.432;11.418;2022-07-09T12:57:26;28.70;72.10
15013;DHT22;7603;49.432;11.418;2022-07-09T12:59:52;29.10;69.30
15013;DHT22;7603;49.432;11.418;2022-07-09T13:02:17;29.10;69.40
15013;DHT22;7603;49.432;11.418;2022-07-09T13:04:43;29.00;69.60
15013;DHT22;7603;49.432;11.418;2022-07-09T13:07:09;29.40;69.40
15013;DHT22;7603;49.432;11.418;2022-07-09T13:09:34;29.80;66.90
15013;DHT22;7603;49.432;11.418;2022-07-09T13:12:00;30.10;65.10
15013;DHT22;7603;49.432;11.418;2022-07-09T13:14:26;30.30;63.10
15013;DHT22;7603;49.432;11.418;2022-07-09T13:16:51;29.70;62.90
15013;DHT22;7603;49.432;11.418;2022-07-09T13:19:17;29.40;64.70
15013;DHT22;7603;49.432;11.418;2022-07-09T13:21:43;29.40;65.50
15013;DHT22;7603;49.432;11.418;2022-07-09T13:24:08;29.50;64.60
15013;DHT22;7603;49.432;11.418;2022-07-09T13:26:34;29.40;63.80
15013;DHT22;7603;49.432;11.418;2022-07-09T13:29:00;29.30;63.60
15013;DHT22;7603;49.432;11.418;2022-07-09T13:31:25;29.00;63.80
15013;DHT22;7603;49.432;11.418;2022-07-09T13:33:51;29.00;64.60
15013;DHT22;7603;49.432;11.418;2022-07-09T13:36:17;29.00;65.00
15013;DHT22;7603;49.432;11.418;2022-07-09T13:38:42;29.20;64.50
15013;DHT22;7603;49.432;11.418;2022-07-09T13:41:08;29.60;63.60
15013;DHT22;7603;49.432;11.418;2022-07-09T13:43:34;30.40;62.40
15013;DHT22;7603;49.432;11.418;2022-07-09T13:45:59;30.60;59.30
15013;DHT22;7603;49.432;11.418;2022-07-09T13:48:26;30.70;58.80
15013;DHT22;7603;49.432;11.418;2022-07-09T13:50:52;30.70;58.80
15013;DHT22;7603;49.432;11.418;2022-07-09T13:53:19;30.50;58.10
15013;DHT22;7603;49.432;11.418;2022-07-09T13:55:45;30.20;58.80
15013;DHT22;7603;49.432;11.418;2022-07-09T13:58:11;30.20;59.00
15013;DHT22;7603;49.432;11.418;2022-07-09T14:00:37;30.20;59.20
15013;DHT22;7603;49.432;11.418;2022-07-09T14:03:03;30.50;58.00
15013;DHT22;7603;49.432;11.418;2022-07-09T14:05:28;30.50;57.80
15013;DHT22;7603;49.432;11.418;2022-07-09T14:07:54;30.30;58.30
15013;DHT22;7603;49.432;11.418;2022-07-09T14:10:21;29.80;58.20
15013;DHT22;7603;49.432;11.418;2022-07-09T14:12:47;29.50;58.70
15013;DHT22;7603;49.432;11.418;2022-07-09T14:15:13;29.10;59.30
15013;DHT22;7603;49.432;11.418;2022-07-09T14:17:39;29.10;60.20
15013;DHT22;7603;49.432;11.418;2022-07-09T14:20:07;30.00;60.40
15013;DHT22;7603;49.432;11.418;2022-07-09T14:22:33;31.50;57.60
15013;DHT22;7603;49.432;11.418;2022-07-09T14:24:59;32.60;54.80
15013;DHT22;7603;49.432;11.418;2022-07-09T14:27:25;33.10;53.30
15013;DHT22;7603;49.432;11.418;2022-07-09T14:29:50;32.90;52.60
15013;DHT22;7603;49.432;11.418;2022-07-09T14:32:16;32.20;52.80
15013;DHT22;7603;49.432;11.418;2022-07-09T14:34:41;31.30;53.70
15013;DHT22;7603;49.432;11.418;2022-07-09T14:37:07;30.60;54.00
15013;DHT22;7603;49.432;11.418;2022-07-09T14:39:33;30.00;55.10
15013;DHT22;7603;49.432;11.418;2022-07-09T14:41:58;29.30;56.20
15013;DHT22;7603;49.432;11.418;2022-07-09T14:44:24;28.70;57.30
15013;DHT22;7603;49.432;11.418;2022-07-09T14:46:50;28.10;58.00
15013;DHT22;7603;49.432;11.418;2022-07-09T14:49:16;27.70;58.80
15013;DHT22;7603;49.432;11.418;2022-07-09T14:51:42;27.30;59.80
15013;DHT22;7603;49.432;11.418;2022-07-09T14:54:08;26.90;61.10
15013;DHT22;7603;49.432;11.418;2022-07-09T14:56:33;26.70;62.70
15013;DHT22;7603;49.432;11.418;2022-07-09T14:58:59;26.50;63.40
15013;DHT22;7603;49.432;11.418;2022-07-09T15:01:25;26.30;64.00
15013;DHT22;7603;49.432;11.418;2022-07-09T15:03:51;26.20;64.30
15013;DHT22;7603;49.432;11.418;2022-07-09T15:06:17;26.00;64.90
15013;DHT22;7603;49.432;11.418;2022-07-09T15:08:43;25.90;65.80
15013;DHT22;7603;49.432;11.418;2022-07-09T15:11:12;25.80;66.60
15013;DHT22;7603;49.432;11.418;2022-07-09T15:13:37;25.70;67.20
15013;DHT22;7603;49.432;11.418;2022-07-09T15:16:04;25.70;67.90
15013;DHT22;7603;49.432;11.418;2022-07-09T15:18:29;25.70;67.90
15013;DHT22;7603;49.432;11.418;2022-07-09T15:20:55;25.60;68.40
15013;DHT22;7603;49.432;11.418;2022-07-09T15:23:21;25.60;69.30
15013;DHT22;7603;49.432;11.418;2022-07-09T15:25:47;25.60;69.90
15013;DHT22;7603;49.432;11.418;2022-07-09T15:28:13;25.60;70.70
15013;DHT22;7603;49.432;11.418;2022-07-09T15:30:39;25.60;70.70
15013;DHT22;7603;49.432;11.418;2022-07-09T15:33:05;25.60;70.20
15013;DHT22;7603;49.432;11.418;2022-07-09T15:35:30;25.70;70.50